createdAt,value
2018-05-15T00:00:07.134Z,100602.23
2018-05-15T00:02:35.414Z,100608.05
2018-05-15T00:05:07.518Z,100611.16
2018-05-15T00:07:35.838Z,100612.91
2018-05-15T00:10:08.736Z,100611.05
2018-05-15T00:12:37.007Z,100619.84
2018-05-15T00:15:08.700Z,100618.25
2018-05-15T00:17:37.032Z,100620.17
2018-05-15T00:20:06.859Z,100615.69
2018-05-15T00:22:35.194Z,100622.84
2018-05-15T00:25:06.486Z,100618.66
2018-05-15T00:27:34.779Z,100616.47
2018-05-15T00:30:06.383Z,100621.13
2018-05-15T00:32:34.918Z,100619.50
2018-05-15T00:35:06.684Z,100621.73
2018-05-15T00:37:34.959Z,100627.55
2018-05-15T00:40:06.716Z,100626.31
2018-05-15T00:42:35.295Z,100632.98
2018-05-15T00:45:06.918Z,100642.05
2018-05-15T00:47:35.433Z,100639.03
2018-05-15T00:50:05.543Z,100636.60
2018-05-15T00:52:33.811Z,100642.53
2018-05-15T00:55:13.960Z,100646.25
2018-05-15T00:57:42.399Z,100647.81
2018-05-15T01:00:10.682Z,100650.97
2018-05-15T01:02:38.951Z,100647.09
2018-05-15T01:05:08.084Z,100644.20
2018-05-15T01:07:36.320Z,100648.64
2018-05-15T01:10:06.504Z,100653.39
2018-05-15T01:12:34.967Z,100661.97
2018-05-15T01:15:06.648Z,100658.27
2018-05-15T01:17:35.118Z,100660.27
2018-05-15T01:20:07.294Z,100661.90
2018-05-15T01:22:35.571Z,100656.09
2018-05-15T01:25:05.575Z,100657.81
2018-05-15T01:27:33.842Z,100664.50
2018-05-15T01:30:09.141Z,100659.87
2018-05-15T01:32:37.846Z,100668.58
2018-05-15T01:35:06.132Z,100667.98
2018-05-15T01:37:34.528Z,100666.89
2018-05-15T01:40:05.673Z,100668.38
2018-05-15T01:42:33.859Z,100663.14
2018-05-15T01:45:05.419Z,100658.77
2018-05-15T01:47:33.687Z,100666.38
2018-05-15T01:50:04.984Z,100668.75
2018-05-15T01:52:33.511Z,100666.33
2018-05-15T01:55:08.516Z,100666.58
2018-05-15T01:57:36.772Z,100665.68
2018-05-15T02:00:06.094Z,100666.39
2018-05-15T02:02:34.429Z,100662.46
2018-05-15T02:05:05.839Z,100666.07
2018-05-15T02:07:34.099Z,100666.30
2018-05-15T02:10:05.838Z,100667.16
2018-05-15T02:12:34.575Z,100662.21
2018-05-15T02:15:06.422Z,100658.03
2018-05-15T02:17:34.729Z,100659.42
2018-05-15T02:20:06.739Z,100655.48
2018-05-15T02:22:35.053Z,100656.66
2018-05-15T02:25:06.483Z,100656.84
2018-05-15T02:27:34.902Z,100655.89
2018-05-15T02:30:07.134Z,100658.55
2018-05-15T02:32:35.636Z,100664.72
2018-05-15T02:35:07.367Z,100661.38
2018-05-15T02:37:35.900Z,100665.29
2018-05-15T02:40:05.832Z,100669.42
2018-05-15T02:42:34.106Z,100663.63
2018-05-15T02:45:06.332Z,100661.89
2018-05-15T02:47:34.585Z,100662.06
2018-05-15T02:50:06.325Z,100662.10
2018-05-15T02:52:34.590Z,100659.97
2018-05-15T02:55:05.787Z,100658.95
2018-05-15T02:57:34.063Z,100662.19
2018-05-15T03:00:09.294Z,100662.92
2018-05-15T03:02:37.560Z,100663.80
2018-05-15T03:05:05.954Z,100663.55
2018-05-15T03:07:34.211Z,100666.20
2018-05-15T03:10:05.637Z,100668.06
2018-05-15T03:12:33.894Z,100666.91
2018-05-15T03:15:05.695Z,100663.40
2018-05-15T03:17:33.974Z,100675.04
2018-05-15T03:20:05.867Z,100668.24
2018-05-15T03:22:34.403Z,100675.73
2018-05-15T03:25:05.963Z,100672.00
2018-05-15T03:27:34.227Z,100680.72
2018-05-15T03:30:08.240Z,100682.45
2018-05-15T03:32:36.616Z,100677.87
2018-05-15T03:35:06.027Z,100684.49
2018-05-15T03:37:34.300Z,100685.13
2018-05-15T03:40:06.402Z,100687.23
2018-05-15T03:42:34.675Z,100690.17
2018-05-15T03:45:07.491Z,100692.05
2018-05-15T03:47:35.839Z,100695.58
2018-05-15T03:50:05.619Z,100696.64
2018-05-15T03:52:33.908Z,100694.23
2018-05-15T03:55:05.380Z,100691.42
2018-05-15T03:57:33.925Z,100685.19
2018-05-15T04:00:05.387Z,100697.86
2018-05-15T04:02:45.523Z,100699.41
2018-05-15T04:05:25.783Z,100700.05
2018-05-15T04:08:05.723Z,100699.08
2018-05-15T04:10:34.223Z,100700.29
2018-05-15T04:13:02.714Z,100700.31
2018-05-15T04:15:31.018Z,100693.58
2018-05-15T04:17:59.399Z,100702.38
2018-05-15T04:20:27.743Z,100709.82
2018-05-15T04:22:56.044Z,100707.06
2018-05-15T04:25:24.343Z,100709.42
2018-05-15T04:27:52.624Z,100711.46
2018-05-15T04:30:20.900Z,100715.88
2018-05-15T04:32:49.419Z,100714.25
2018-05-15T04:35:17.978Z,100716.84
2018-05-15T04:37:46.195Z,100727.14
2018-05-15T04:40:14.631Z,100727.84
2018-05-15T04:42:42.916Z,100726.34
2018-05-15T04:45:11.280Z,100722.13
2018-05-15T04:47:39.702Z,100717.95
2018-05-15T04:50:08.940Z,100724.00
2018-05-15T04:52:37.229Z,100723.30
2018-05-15T04:55:06.512Z,100732.40
2018-05-15T04:57:35.043Z,100723.84
2018-05-15T05:00:07.048Z,100726.52
2018-05-15T05:02:35.336Z,100735.47
2018-05-15T05:05:06.644Z,100737.09
2018-05-15T05:07:35.013Z,100735.28
2018-05-15T05:10:05.807Z,100737.59
2018-05-15T05:12:34.097Z,100741.94
2018-05-15T05:15:05.728Z,100742.20
2018-05-15T05:17:34.024Z,100741.98
2018-05-15T05:20:06.901Z,100735.91
2018-05-15T05:22:35.192Z,100737.32
2018-05-15T05:25:06.675Z,100742.81
2018-05-15T05:27:34.968Z,100758.91
2018-05-15T05:30:06.472Z,100754.69
2018-05-15T05:32:35.053Z,100753.05
2018-05-15T05:35:07.087Z,100754.72
2018-05-15T05:37:35.651Z,100753.25
2018-05-15T05:40:05.805Z,100751.26
2018-05-15T05:42:34.323Z,100751.35
2018-05-15T05:45:08.436Z,100753.71
2018-05-15T05:47:37.016Z,100759.70
2018-05-15T05:50:06.315Z,100762.95
2018-05-15T05:52:34.804Z,100763.67
2018-05-15T05:55:06.913Z,100766.63
2018-05-15T05:57:35.215Z,100770.24
2018-05-15T06:00:06.686Z,100775.99
2018-05-15T06:02:35.717Z,100776.94
2018-05-15T06:05:05.792Z,100776.89
2018-05-15T06:07:34.079Z,100776.41
2018-05-15T06:10:05.443Z,100770.88
2018-05-15T06:12:34.007Z,100776.97
2018-05-15T06:15:08.320Z,100778.99
2018-05-15T06:17:36.813Z,100777.68
2018-05-15T06:20:05.995Z,100769.63
2018-05-15T06:22:34.275Z,100778.86
2018-05-15T06:25:06.065Z,100786.89
2018-05-15T06:27:34.512Z,100789.97
2018-05-15T06:30:05.969Z,100803.00
2018-05-15T06:32:34.307Z,100796.55
2018-05-15T06:35:09.591Z,100797.38
2018-05-15T06:37:37.868Z,100799.52
2018-05-15T06:40:06.135Z,100803.32
2018-05-15T06:42:34.415Z,100800.84
2018-05-15T06:45:06.220Z,100785.63
2018-05-15T06:47:34.554Z,100795.16
2018-05-15T06:50:06.935Z,100790.30
2018-05-15T06:52:35.276Z,100793.08
2018-05-15T06:55:06.335Z,100792.95
2018-05-15T06:57:34.579Z,100800.23
2018-05-15T07:00:08.540Z,100801.03
2018-05-15T07:02:36.828Z,100803.27
2018-05-15T07:05:06.415Z,100810.23
2018-05-15T07:07:34.792Z,100805.95
2018-05-15T07:10:06.844Z,100805.00
2018-05-15T07:12:35.388Z,100808.15
2018-05-15T07:15:05.828Z,100807.80
2018-05-15T07:17:34.776Z,100805.78
2018-05-15T07:20:06.712Z,100801.45
2018-05-15T07:22:34.980Z,100800.34
2018-05-15T07:25:05.992Z,100796.50
2018-05-15T07:27:34.268Z,100800.41
2018-05-15T07:30:06.168Z,100799.36
2018-05-15T07:32:35.257Z,100801.27
2018-05-15T07:35:07.427Z,100801.08
2018-05-15T07:37:35.919Z,100801.36
2018-05-15T07:40:07.669Z,100797.70
2018-05-15T07:42:35.944Z,100796.91
2018-05-15T07:45:07.255Z,100798.56
2018-05-15T07:47:35.535Z,100793.63
2018-05-15T07:50:07.847Z,100786.89
2018-05-15T07:52:36.121Z,100787.64
2018-05-15T07:55:07.785Z,100778.71
2018-05-15T07:57:36.059Z,100779.84
2018-05-15T08:00:06.278Z,100778.95
2018-05-15T08:02:34.542Z,100788.08
2018-05-15T08:05:06.549Z,100792.01
2018-05-15T08:07:35.176Z,100788.63
2018-05-15T08:10:07.083Z,100801.12
2018-05-15T08:12:35.366Z,100797.34
2018-05-15T08:15:06.881Z,100790.76
2018-05-15T08:17:36.331Z,100792.91
2018-05-15T08:20:05.941Z,100800.77
2018-05-15T08:22:34.576Z,100796.64
2018-05-15T08:25:05.896Z,100793.94
2018-05-15T08:27:34.156Z,100798.19
2018-05-15T08:30:08.232Z,100793.05
2018-05-15T08:32:36.564Z,100799.77
2018-05-15T08:35:06.411Z,100797.77
2018-05-15T08:37:34.873Z,100799.38
2018-05-15T08:40:06.609Z,100796.56
2018-05-15T08:42:34.883Z,100794.31
2018-05-15T08:45:07.084Z,100789.70
2018-05-15T08:47:35.355Z,100777.58
2018-05-15T08:50:07.257Z,100777.52
2018-05-15T08:52:35.590Z,100782.30
2018-05-15T08:55:07.864Z,100784.45
2018-05-15T08:57:36.137Z,100787.90
2018-05-15T09:00:05.955Z,100789.03
2018-05-15T09:02:34.268Z,100784.91
2018-05-15T09:05:05.759Z,100785.08
2018-05-15T09:07:34.298Z,100784.05
2018-05-15T09:10:05.790Z,100783.89
2018-05-15T09:12:34.292Z,100783.85
2018-05-15T09:15:07.585Z,100776.14
2018-05-15T09:17:35.968Z,100781.34
2018-05-15T09:20:06.085Z,100775.98
2018-05-15T09:22:34.387Z,100786.04
2018-05-15T09:25:09.403Z,100784.32
2018-05-15T09:27:37.737Z,100781.41
2018-05-15T09:30:06.008Z,100777.94
2018-05-15T09:32:34.292Z,100786.26
2018-05-15T09:35:09.392Z,100776.61
2018-05-15T09:37:37.689Z,100772.41
2018-05-15T09:40:05.967Z,100778.22
2018-05-15T09:42:34.247Z,100780.09
2018-05-15T09:45:05.782Z,100780.25
2018-05-15T09:47:34.067Z,100771.63
2018-05-15T09:50:09.107Z,100771.69
2018-05-15T09:52:37.648Z,100771.20
2018-05-15T09:55:06.568Z,100771.39
2018-05-15T09:57:34.846Z,100757.27
2018-05-15T10:00:07.068Z,100752.47
2018-05-15T10:02:35.499Z,100754.31
2018-05-15T10:05:05.946Z,100763.23
2018-05-15T10:07:34.411Z,100762.57
2018-05-15T10:10:09.259Z,100759.61
2018-05-15T10:12:37.548Z,100756.98
2018-05-15T10:15:06.059Z,100761.12
2018-05-15T10:17:34.344Z,100760.39
2018-05-15T10:20:05.947Z,100755.09
2018-05-15T10:22:34.232Z,100755.13
2018-05-15T10:25:06.372Z,100758.47
2018-05-15T10:27:34.663Z,100754.52
2018-05-15T10:30:06.143Z,100753.96
2018-05-15T10:32:34.429Z,100753.45
2018-05-15T10:35:06.316Z,100742.66
2018-05-15T10:37:34.600Z,100752.52
2018-05-15T10:40:06.387Z,100746.28
2018-05-15T10:42:34.793Z,100753.00
2018-05-15T10:45:06.787Z,100755.90
2018-05-15T10:47:35.078Z,100754.88
2018-05-15T10:50:07.195Z,100744.20
2018-05-15T10:52:35.492Z,100739.32
2018-05-15T10:55:06.796Z,100736.05
2018-05-15T10:57:35.067Z,100751.52
2018-05-15T11:00:06.770Z,100748.73
2018-05-15T11:02:35.227Z,100738.45
2018-05-15T11:05:07.235Z,100737.39
2018-05-15T11:07:35.667Z,100733.66
2018-05-15T11:10:06.854Z,100737.39
2018-05-15T11:12:35.244Z,100734.52
2018-05-15T11:15:06.348Z,100730.02
2018-05-15T11:17:34.635Z,100736.73
2018-05-15T11:20:14.715Z,100721.91
2018-05-15T11:22:55.123Z,100729.02
2018-05-15T11:25:23.398Z,100734.55
2018-05-15T11:27:51.783Z,100733.36
2018-05-15T11:30:20.347Z,100735.25
2018-05-15T11:32:48.631Z,100725.63
2018-05-15T11:35:16.916Z,100728.38
2018-05-15T11:37:45.198Z,100738.09
2018-05-15T11:40:13.575Z,100737.38
2018-05-15T11:42:41.863Z,100734.14
2018-05-15T11:45:10.132Z,100740.62
2018-05-15T11:47:38.634Z,100731.56
2018-05-15T11:50:07.943Z,100730.21
2018-05-15T11:52:36.323Z,100726.83
2018-05-15T11:55:08.713Z,100735.81
2018-05-15T11:57:37.231Z,100726.59
2018-05-15T12:00:06.434Z,100729.41
2018-05-15T12:02:34.741Z,100723.45
2018-05-15T12:05:08.845Z,100722.55
2018-05-15T12:07:37.133Z,100725.37
2018-05-15T12:10:06.445Z,100732.72
2018-05-15T12:12:34.791Z,100732.00
2018-05-15T12:15:06.379Z,100725.20
2018-05-15T12:17:34.921Z,100737.61
2018-05-15T12:20:06.538Z,100735.11
2018-05-15T12:22:34.808Z,100731.84
2018-05-15T12:25:06.219Z,100731.69
2018-05-15T12:27:34.515Z,100720.11
2018-05-15T12:30:06.392Z,100719.97
2018-05-15T12:32:34.660Z,100716.01
2018-05-15T12:35:06.259Z,100711.18
2018-05-15T12:37:34.547Z,100707.83
2018-05-15T12:40:06.329Z,100717.23
2018-05-15T12:42:34.776Z,100711.65
2018-05-15T12:45:08.827Z,100709.61
2018-05-15T12:47:37.092Z,100710.94
2018-05-15T12:50:06.414Z,100712.41
2018-05-15T12:52:34.716Z,100713.98
2018-05-15T12:55:06.447Z,100716.56
2018-05-15T12:57:34.984Z,100707.22
2018-05-15T13:00:06.211Z,100708.28
2018-05-15T13:02:34.488Z,100711.75
2018-05-15T13:05:05.992Z,100697.28
2018-05-15T13:07:34.269Z,100710.72
2018-05-15T13:10:05.614Z,100704.88
2018-05-15T13:12:33.874Z,100705.83
2018-05-15T13:15:08.628Z,100712.47
2018-05-15T13:17:37.370Z,100721.00
2018-05-15T13:20:07.067Z,100717.22
2018-05-15T13:22:35.339Z,100706.71
2018-05-15T13:25:06.859Z,100705.52
2018-05-15T13:27:35.127Z,100715.49
2018-05-15T13:30:06.569Z,100707.11
2018-05-15T13:32:34.897Z,100699.05
2018-05-15T13:35:06.855Z,100700.41
2018-05-15T13:37:35.872Z,100699.70
2018-05-15T13:40:07.436Z,100698.77
2018-05-15T13:42:35.763Z,100695.14
2018-05-15T13:45:07.806Z,100688.05
2018-05-15T13:47:36.479Z,100687.39
2018-05-15T13:50:08.200Z,100682.52
2018-05-15T13:52:36.576Z,100687.91
2018-05-15T13:55:07.295Z,100676.94
2018-05-15T13:57:35.565Z,100677.09
2018-05-15T14:00:06.972Z,100674.70
2018-05-15T14:02:35.237Z,100681.34
2018-05-15T14:05:06.772Z,100672.23
2018-05-15T14:07:35.032Z,100661.24
2018-05-15T14:10:06.247Z,100658.75
2018-05-15T14:12:34.689Z,100656.63
2018-05-15T14:15:06.338Z,100655.77
2018-05-15T14:17:34.616Z,100653.16
2018-05-15T14:20:06.499Z,100643.19
2018-05-15T14:22:34.784Z,100641.55
2018-05-15T14:25:06.265Z,100629.84
2018-05-15T14:27:34.762Z,100635.23
2018-05-15T14:30:06.156Z,100624.41
2018-05-15T14:32:34.430Z,100633.31
2018-05-15T14:35:09.537Z,100633.50
2018-05-15T14:37:37.819Z,100625.45
2018-05-15T14:40:06.371Z,100634.23
2018-05-15T14:42:46.336Z,100642.18
2018-05-15T14:45:17.457Z,100638.78
2018-05-15T14:47:45.746Z,100639.08
2018-05-15T14:50:14.016Z,100631.25
2018-05-15T14:52:42.291Z,100633.37
2018-05-15T14:55:10.581Z,100627.99
2018-05-15T14:57:39.157Z,100632.36
2018-05-15T15:00:07.469Z,100636.03
2018-05-15T15:02:35.772Z,100638.36
2018-05-15T15:05:07.902Z,100639.83
2018-05-15T15:07:36.383Z,100642.45
2018-05-15T15:10:06.483Z,100634.13
2018-05-15T15:12:34.781Z,100629.67
2018-05-15T15:15:06.849Z,100627.27
2018-05-15T15:17:35.111Z,100625.73
2018-05-15T15:20:06.527Z,100616.83
2018-05-15T15:22:34.811Z,100624.88
2018-05-15T15:25:07.427Z,100620.57
2018-05-15T15:27:35.696Z,100616.95
2018-05-15T15:30:07.320Z,100611.49
2018-05-15T15:32:35.622Z,100607.52
2018-05-15T15:35:06.310Z,100604.70
2018-05-15T15:37:34.616Z,100602.69
2018-05-15T15:40:06.238Z,100607.17
2018-05-15T15:42:34.634Z,100601.70
2018-05-15T15:45:06.494Z,100599.70
2018-05-15T15:47:35.007Z,100595.34
2018-05-15T15:50:06.143Z,100593.95
2018-05-15T15:52:34.433Z,100599.90
2018-05-15T15:55:05.705Z,100596.07
2018-05-15T15:57:33.981Z,100592.17
2018-05-15T16:00:08.799Z,100599.95
2018-05-15T16:02:37.092Z,100600.49
2018-05-15T16:05:06.724Z,100594.03
2018-05-15T16:07:35.012Z,100598.23
2018-05-15T16:10:06.499Z,100598.02
2018-05-15T16:12:34.668Z,100596.53
2018-05-15T16:15:06.197Z,100575.14
2018-05-15T16:17:34.794Z,100600.27
2018-05-15T16:20:06.308Z,100598.78
2018-05-15T16:22:34.591Z,100599.19
2018-05-15T16:25:06.014Z,100595.28
2018-05-15T16:27:34.306Z,100596.72
2018-05-15T16:30:06.315Z,100592.69
2018-05-15T16:32:34.653Z,100595.31
2018-05-15T16:35:05.996Z,100602.78
2018-05-15T16:37:34.377Z,100597.92
2018-05-15T16:40:09.543Z,100601.03
2018-05-15T16:42:37.895Z,100593.70
2018-05-15T16:45:06.951Z,100593.32
2018-05-15T16:47:35.396Z,100592.38
2018-05-15T16:50:07.363Z,100594.70
2018-05-15T16:52:35.672Z,100597.28
2018-05-15T16:55:06.532Z,100597.48
2018-05-15T16:57:34.935Z,100604.52
2018-05-15T17:00:09.050Z,100598.48
2018-05-15T17:02:37.355Z,100603.98
2018-05-15T17:05:06.483Z,100605.50
2018-05-15T17:07:34.772Z,100607.70
2018-05-15T17:10:06.351Z,100603.86
2018-05-15T17:12:34.607Z,100597.64
2018-05-15T17:15:07.565Z,100598.20
2018-05-15T17:17:35.858Z,100604.45
2018-05-15T17:20:07.466Z,100588.39
2018-05-15T17:22:35.762Z,100595.78
2018-05-15T17:25:06.401Z,100596.28
2018-05-15T17:27:34.699Z,100598.98
2018-05-15T17:30:08.588Z,100597.38
2018-05-15T17:32:36.904Z,100595.52
2018-05-15T17:35:06.502Z,100591.80
2018-05-15T17:37:34.789Z,100599.97
2018-05-15T17:40:06.488Z,100597.85
2018-05-15T17:42:34.779Z,100601.82
2018-05-15T17:45:06.359Z,100601.35
2018-05-15T17:47:34.652Z,100599.91
2018-05-15T17:50:06.092Z,100595.59
2018-05-15T17:52:34.359Z,100603.08
2018-05-15T17:55:09.468Z,100603.67
2018-05-15T17:57:37.763Z,100605.73
2018-05-15T18:00:06.563Z,100608.72
2018-05-15T18:02:34.889Z,100608.62
2018-05-15T18:05:10.730Z,100613.34
2018-05-15T18:07:39.028Z,100614.36
2018-05-15T18:10:07.297Z,100611.30
2018-05-15T18:12:35.590Z,100620.78
2018-05-15T18:15:06.457Z,100611.11
2018-05-15T18:17:34.771Z,100616.66
2018-05-15T18:20:06.270Z,100619.16
2018-05-15T18:22:34.566Z,100619.30
2018-05-15T18:25:05.909Z,100622.86
2018-05-15T18:27:34.244Z,100622.97
2018-05-15T18:30:09.050Z,100622.39
2018-05-15T18:32:37.415Z,100623.66
2018-05-15T18:35:06.845Z,100623.98
2018-05-15T18:37:35.474Z,100632.23
2018-05-15T18:40:07.563Z,100627.13
2018-05-15T18:42:35.831Z,100627.73
2018-05-15T18:45:07.790Z,100629.76
2018-05-15T18:47:36.072Z,100627.20
2018-05-15T18:50:07.585Z,100626.73
2018-05-15T18:52:35.855Z,100634.63
2018-05-15T18:55:07.692Z,100631.50
2018-05-15T18:57:35.953Z,100635.45
2018-05-15T19:00:07.351Z,100635.14
2018-05-15T19:02:35.893Z,100635.48
2018-05-15T19:05:05.689Z,100641.63
2018-05-15T19:07:34.060Z,100640.16
2018-05-15T19:10:05.518Z,100643.52
2018-05-15T19:12:33.989Z,100656.37
2018-05-15T19:15:05.796Z,100652.92
2018-05-15T19:17:34.100Z,100659.27
2018-05-15T19:20:07.198Z,100656.08
2018-05-15T19:22:35.496Z,100653.69
2018-05-15T19:25:07.352Z,100655.16
2018-05-15T19:27:35.639Z,100669.88
2018-05-15T19:30:09.903Z,100666.32
2018-05-15T19:32:39.004Z,100666.52
2018-05-15T19:35:09.262Z,100668.80
2018-05-15T19:37:37.531Z,100661.32
2018-05-15T19:40:13.465Z,100671.49
2018-05-15T19:42:41.896Z,100666.69
2018-05-15T19:45:10.210Z,100674.78
2018-05-15T19:47:38.467Z,100671.94
2018-05-15T19:50:06.779Z,100678.05
2018-05-15T19:52:35.175Z,100676.52
2018-05-15T19:55:06.786Z,100677.21
2018-05-15T19:57:35.068Z,100677.52
2018-05-15T20:00:06.299Z,100673.36
2018-05-15T20:02:34.579Z,100672.02
2018-05-15T20:05:05.819Z,100671.04
2018-05-15T20:07:34.625Z,100673.73
2018-05-15T20:10:06.636Z,100677.98
2018-05-15T20:12:34.913Z,100675.35
2018-05-15T20:15:07.044Z,100686.03
2018-05-15T20:17:35.630Z,100680.66
2018-05-15T20:20:05.715Z,100678.23
2018-05-15T20:22:33.995Z,100687.69
2018-05-15T20:25:09.140Z,100686.58
2018-05-15T20:27:37.681Z,100684.37
2018-05-15T20:30:06.050Z,100688.72
2018-05-15T20:32:34.532Z,100689.03
2018-05-15T20:35:06.049Z,100682.92
2018-05-15T20:37:34.516Z,100694.46
2018-05-15T20:40:06.534Z,100688.16
2018-05-15T20:42:34.813Z,100689.64
2018-05-15T20:45:06.435Z,100691.30
2018-05-15T20:47:34.768Z,100690.62
2018-05-15T20:50:05.965Z,100692.55
2018-05-15T20:52:34.255Z,100692.66
2018-05-15T20:55:05.626Z,100693.73
2018-05-15T20:57:33.899Z,100693.23
2018-05-15T21:00:07.139Z,100690.95
2018-05-15T21:02:35.407Z,100690.52
2018-05-15T21:05:06.825Z,100695.38
2018-05-15T21:07:35.475Z,100693.88
2018-05-15T21:10:07.191Z,100689.86
2018-05-15T21:12:35.471Z,100689.11
2018-05-15T21:15:07.638Z,100691.94
2018-05-15T21:17:36.007Z,100693.95
2018-05-15T21:20:07.220Z,100688.84
2018-05-15T21:22:35.556Z,100693.39
2018-05-15T21:25:07.569Z,100688.80
2018-05-15T21:27:35.843Z,100688.23
2018-05-15T21:30:05.775Z,100689.10
2018-05-15T21:32:34.236Z,100678.39
2018-05-15T21:35:06.198Z,100681.89
2018-05-15T21:37:34.480Z,100679.00
2018-05-15T21:40:06.584Z,100673.29
2018-05-15T21:42:34.869Z,100679.73
2018-05-15T21:45:05.653Z,100681.13
2018-05-15T21:47:33.935Z,100680.59
2018-05-15T21:50:07.156Z,100673.64
2018-05-15T21:52:35.672Z,100674.69
2018-05-15T21:55:05.647Z,100670.05
2018-05-15T21:57:33.930Z,100676.83
2018-05-15T22:00:07.984Z,100668.27
2018-05-15T22:02:36.274Z,100671.09
2018-05-15T22:05:06.306Z,100662.95
2018-05-15T22:07:34.594Z,100669.97
2018-05-15T22:10:05.791Z,100669.84
2018-05-15T22:12:45.840Z,100677.79
2018-05-15T22:15:26.524Z,100675.16
2018-05-15T22:18:06.768Z,100678.11
2018-05-15T22:20:47.131Z,100673.35
2018-05-15T22:23:14.863Z,100665.34
2018-05-15T22:25:43.223Z,100665.44
2018-05-15T22:28:11.503Z,100665.62
2018-05-15T22:30:40.019Z,100654.29
2018-05-15T22:33:08.311Z,100658.22
2018-05-15T22:35:36.575Z,100659.11
2018-05-15T22:38:04.948Z,100657.73
2018-05-15T22:40:33.215Z,100657.27
2018-05-15T22:43:01.507Z,100661.77
2018-05-15T22:45:30.697Z,100657.75
2018-05-15T22:47:59.006Z,100655.73
2018-05-15T22:50:27.281Z,100651.30
2018-05-15T22:52:55.558Z,100642.91
2018-05-15T22:55:23.848Z,100641.13
2018-05-15T22:57:52.140Z,100640.29
2018-05-15T23:00:20.403Z,100634.84
2018-05-15T23:02:48.690Z,100631.73
2018-05-15T23:05:16.971Z,100632.45
2018-05-15T23:07:45.255Z,100628.45
2018-05-15T23:10:13.531Z,100628.71
2018-05-15T23:12:41.824Z,100629.84
2018-05-15T23:15:10.090Z,100622.12
2018-05-15T23:17:38.395Z,100618.23
2018-05-15T23:20:06.673Z,100626.34
2018-05-15T23:22:41.788Z,100617.72
2018-05-15T23:25:10.098Z,100616.00
2018-05-15T23:27:38.387Z,100611.71
2018-05-15T23:30:07.038Z,100609.05
2018-05-15T23:32:35.523Z,100609.41
2018-05-15T23:35:07.051Z,100609.29
2018-05-15T23:37:35.359Z,100610.23
2018-05-15T23:40:07.194Z,100604.28
2018-05-15T23:42:35.547Z,100610.55
2018-05-15T23:45:07.558Z,100620.89
2018-05-15T23:47:36.032Z,100618.43
2018-05-15T23:50:05.915Z,100615.75
2018-05-15T23:52:34.207Z,100610.37
2018-05-15T23:55:09.565Z,100625.27
2018-05-15T23:57:37.859Z,100617.26
